createdAt,value
2019-05-28T00:01:06.478Z,15.30
2019-05-28T00:03:34.966Z,15.20
2019-05-28T00:06:03.613Z,15.30
2019-05-28T00:08:32.044Z,14.80
2019-05-28T00:11:00.534Z,14.60
2019-05-28T00:13:28.960Z,14.10
2019-05-28T00:15:57.394Z,13.70
2019-05-28T00:18:25.809Z,13.40
2019-05-28T00:20:54.262Z,13.40
2019-05-28T00:23:22.725Z,13.30
2019-05-28T00:25:51.225Z,13.10
2019-05-28T00:28:19.746Z,13.00
2019-05-28T00:30:48.273Z,13.00
2019-05-28T00:33:16.699Z,13.00
2019-05-28T00:35:45.210Z,13.10
2019-05-28T00:38:13.633Z,13.10
2019-05-28T00:40:42.709Z,13.10
2019-05-28T00:43:11.280Z,13.00
2019-05-28T00:45:39.687Z,13.00
2019-05-28T00:48:08.285Z,13.20
2019-05-28T00:50:36.770Z,13.10
2019-05-28T00:53:05.323Z,13.00
2019-05-28T00:55:34.399Z,13.20
2019-05-28T00:58:03.285Z,13.20
2019-05-28T01:00:46.767Z,13.10
2019-05-28T01:03:16.041Z,13.00
2019-05-28T01:05:44.613Z,13.00
2019-05-28T01:08:13.092Z,13.10
2019-05-28T01:10:41.596Z,13.10
2019-05-28T01:13:10.042Z,13.10
2019-05-28T01:15:38.553Z,13.10
2019-05-28T01:18:07.046Z,13.10
2019-05-28T01:20:35.480Z,13.10
2019-05-28T01:23:03.987Z,13.00
2019-05-28T01:25:32.424Z,13.10
2019-05-28T01:28:00.838Z,13.20
2019-05-28T01:30:29.322Z,13.20
2019-05-28T01:32:57.769Z,13.20
2019-05-28T01:35:26.174Z,13.20
2019-05-28T01:37:54.689Z,13.20
2019-05-28T01:40:23.424Z,13.10
2019-05-28T01:42:51.950Z,13.00
2019-05-28T01:45:20.612Z,13.00
2019-05-28T01:47:49.053Z,13.00
2019-05-28T01:50:17.647Z,12.90
2019-05-28T01:52:46.071Z,13.10
2019-05-28T01:55:15.582Z,13.00
2019-05-28T01:57:44.034Z,13.10
2019-05-28T02:00:13.092Z,13.10
2019-05-28T02:02:41.570Z,13.10
2019-05-28T02:05:11.453Z,13.00
2019-05-28T02:07:39.866Z,13.10
2019-05-28T02:10:09.150Z,13.00
2019-05-28T02:12:37.613Z,13.10
2019-05-28T02:15:08.446Z,13.10
2019-05-28T02:17:36.889Z,13.10
2019-05-28T02:20:11.571Z,13.10
2019-05-28T02:22:40.058Z,13.20
2019-05-28T02:25:09.236Z,13.10
2019-05-28T02:27:37.735Z,13.20
2019-05-28T02:30:11.516Z,13.20
2019-05-28T02:32:39.999Z,13.00
2019-05-28T02:35:08.853Z,12.90
2019-05-28T02:37:37.330Z,13.00
2019-05-28T02:40:08.112Z,13.00
2019-05-28T02:42:36.771Z,12.90
2019-05-28T02:45:10.389Z,13.00
2019-05-28T02:47:38.804Z,13.00
2019-05-28T02:50:09.499Z,13.10
2019-05-28T02:52:39.162Z,12.80
2019-05-28T02:55:08.831Z,12.70
2019-05-28T02:57:40.197Z,12.60
2019-05-28T03:00:14.073Z,12.70
2019-05-28T03:02:45.600Z,12.80
2019-05-28T03:05:14.379Z,12.70
2019-05-28T03:07:44.872Z,12.60
2019-05-28T03:10:13.715Z,12.60
2019-05-28T03:12:42.238Z,12.70
2019-05-28T03:15:11.153Z,12.70
2019-05-28T03:17:41.945Z,12.80
2019-05-28T03:20:10.522Z,12.80
2019-05-28T03:22:40.181Z,12.80
2019-05-28T03:25:09.110Z,12.80
2019-05-28T03:27:37.628Z,12.80
2019-05-28T03:30:07.729Z,12.70
2019-05-28T03:32:36.257Z,12.70
2019-05-28T03:35:06.210Z,12.60
2019-05-28T03:37:36.143Z,12.70
2019-05-28T03:40:08.599Z,12.70
2019-05-28T03:42:37.042Z,12.70
2019-05-28T03:45:06.838Z,12.80
2019-05-28T03:47:35.290Z,12.70
2019-05-28T03:50:06.040Z,12.70
2019-05-28T03:52:34.458Z,12.60
2019-05-28T03:55:03.564Z,12.60
2019-05-28T03:57:31.982Z,12.60
2019-05-28T04:00:00.397Z,12.60
2019-05-28T04:02:28.876Z,12.60
2019-05-28T04:04:57.401Z,12.60
2019-05-28T04:07:25.894Z,12.70
2019-05-28T04:09:54.317Z,12.80
2019-05-28T04:12:22.770Z,12.80
2019-05-28T04:14:51.208Z,12.70
2019-05-28T04:17:19.664Z,12.60
2019-05-28T04:19:48.094Z,12.60
2019-05-28T04:22:16.506Z,12.70
2019-05-28T04:24:44.938Z,12.70
2019-05-28T04:27:13.503Z,12.70
2019-05-28T04:29:41.932Z,12.70
2019-05-28T04:32:10.465Z,12.70
2019-05-28T04:34:38.896Z,12.70
2019-05-28T04:37:07.337Z,12.70
2019-05-28T04:39:35.827Z,12.70
2019-05-28T04:42:04.419Z,12.80
2019-05-28T04:44:32.853Z,13.00
2019-05-28T04:47:01.307Z,13.00
2019-05-28T04:49:29.751Z,12.90
2019-05-28T04:51:58.192Z,12.90
2019-05-28T04:54:26.650Z,12.90
2019-05-28T04:56:55.067Z,12.90
2019-05-28T04:59:23.508Z,13.00
2019-05-28T05:01:51.967Z,12.90
2019-05-28T05:04:20.379Z,12.90
2019-05-28T05:06:48.812Z,12.90
2019-05-28T05:09:17.293Z,13.00
2019-05-28T05:11:45.739Z,13.00
2019-05-28T05:14:14.150Z,13.00
2019-05-28T05:16:43.164Z,13.10
2019-05-28T05:19:11.610Z,13.10
2019-05-28T05:21:40.056Z,13.00
2019-05-28T05:24:08.554Z,13.00
2019-05-28T05:26:37.020Z,13.10
2019-05-28T05:29:05.466Z,13.20
2019-05-28T05:31:33.887Z,13.20
2019-05-28T05:34:02.314Z,13.20
2019-05-28T05:36:30.742Z,13.30
2019-05-28T05:38:59.183Z,13.30
2019-05-28T05:41:27.838Z,13.30
2019-05-28T05:43:56.272Z,13.40
2019-05-28T05:46:24.679Z,13.50
2019-05-28T05:48:53.339Z,13.60
2019-05-28T05:51:21.768Z,13.70
2019-05-28T05:53:50.195Z,13.80
2019-05-28T05:56:18.608Z,13.90
2019-05-28T05:58:47.013Z,13.90
2019-05-28T06:01:15.466Z,14.00
2019-05-28T06:03:44.177Z,13.90
2019-05-28T06:06:12.613Z,13.90
2019-05-28T06:08:41.036Z,14.00
2019-05-28T06:11:09.469Z,14.00
2019-05-28T06:13:37.860Z,14.00
2019-05-28T06:16:06.348Z,14.00
2019-05-28T06:18:34.753Z,14.00
2019-05-28T06:21:12.419Z,14.10
2019-05-28T06:23:33.355Z,14.00
2019-05-28T06:26:01.769Z,14.10
2019-05-28T06:28:30.224Z,14.10
2019-05-28T06:30:58.638Z,14.00
2019-05-28T06:33:27.053Z,13.90
2019-05-28T06:35:55.481Z,13.90
2019-05-28T06:38:23.918Z,13.90
2019-05-28T06:40:52.309Z,13.90
2019-05-28T06:43:20.740Z,13.90
2019-05-28T06:45:49.171Z,13.90
2019-05-28T06:48:17.588Z,13.90
2019-05-28T06:50:45.998Z,13.90
2019-05-28T06:53:14.436Z,13.90
2019-05-28T06:55:42.878Z,13.90
2019-05-28T06:58:11.561Z,13.80
2019-05-28T07:00:39.983Z,13.70
2019-05-28T07:03:08.409Z,13.70
2019-05-28T07:05:36.856Z,13.70
2019-05-28T07:08:05.270Z,13.80
2019-05-28T07:10:33.708Z,13.70
2019-05-28T07:13:02.108Z,13.70
2019-05-28T07:15:30.536Z,13.70
2019-05-28T07:17:59.683Z,13.70
2019-05-28T07:20:28.348Z,13.60
2019-05-28T07:22:56.806Z,13.70
2019-05-28T07:25:25.299Z,13.80
2019-05-28T07:28:09.710Z,13.90
2019-05-28T07:30:23.969Z,13.80
2019-05-28T07:32:52.384Z,13.90
2019-05-28T07:35:20.799Z,13.90
2019-05-28T07:37:49.237Z,14.00
2019-05-28T07:40:30.907Z,14.10
2019-05-28T07:42:47.875Z,14.20
2019-05-28T07:45:16.396Z,14.30
2019-05-28T07:47:44.880Z,14.30
2019-05-28T07:50:13.516Z,14.50
2019-05-28T07:52:41.938Z,14.60
2019-05-28T07:55:10.346Z,14.80
2019-05-28T07:57:38.752Z,14.90
2019-05-28T08:00:08.287Z,15.00
2019-05-28T08:02:36.687Z,15.20
2019-05-28T08:05:06.831Z,15.20
2019-05-28T08:07:35.225Z,15.20
2019-05-28T08:10:05.198Z,15.30
2019-05-28T08:12:33.612Z,15.40
2019-05-28T08:15:02.033Z,15.30
2019-05-28T08:17:30.445Z,15.10
2019-05-28T08:19:58.872Z,15.00
2019-05-28T08:22:40.957Z,15.10
2019-05-28T08:24:57.425Z,15.10
2019-05-28T08:27:25.860Z,15.20
2019-05-28T08:29:54.281Z,15.50
2019-05-28T08:32:23.055Z,15.70
2019-05-28T08:35:05.133Z,15.90
2019-05-28T08:37:22.603Z,16.10
2019-05-28T08:39:51.068Z,16.00
2019-05-28T08:42:21.035Z,16.20
2019-05-28T08:44:49.703Z,16.30
2019-05-28T08:47:18.115Z,16.20
2019-05-28T08:49:46.534Z,16.40
2019-05-28T08:52:14.949Z,16.40
2019-05-28T08:54:43.374Z,16.60
2019-05-28T08:57:11.882Z,16.80
2019-05-28T08:59:40.324Z,16.90
2019-05-28T09:02:26.426Z,17.20
2019-05-28T09:04:38.946Z,17.50
2019-05-28T09:07:07.391Z,17.20
2019-05-28T09:09:35.808Z,17.50
2019-05-28T09:12:04.302Z,17.80
2019-05-28T09:14:54.418Z,18.00
2019-05-28T09:17:02.991Z,18.10
2019-05-28T09:19:31.573Z,18.10
2019-05-28T09:22:00.114Z,18.10
2019-05-28T09:24:28.526Z,18.10
2019-05-28T09:26:56.943Z,17.90
2019-05-28T09:29:25.345Z,18.00
2019-05-28T09:31:53.764Z,17.70
2019-05-28T09:34:22.192Z,17.80
2019-05-28T09:36:50.622Z,17.60
2019-05-28T09:39:19.031Z,17.50
2019-05-28T09:41:47.466Z,17.60
2019-05-28T09:44:15.885Z,17.30
2019-05-28T09:46:44.294Z,17.60
2019-05-28T09:49:12.709Z,17.30
2019-05-28T09:51:41.193Z,16.90
2019-05-28T09:54:09.646Z,17.20
2019-05-28T09:56:38.054Z,17.20
2019-05-28T09:59:06.573Z,17.10
2019-05-28T10:01:37.243Z,16.80
2019-05-28T10:04:05.258Z,16.60
2019-05-28T10:06:37.315Z,16.80
2019-05-28T10:09:05.587Z,17.30
2019-05-28T10:11:33.982Z,17.80
2019-05-28T10:14:02.474Z,18.10
2019-05-28T10:16:30.895Z,18.50
2019-05-28T10:18:59.315Z,18.80
2019-05-28T10:21:27.758Z,18.60
2019-05-28T10:23:56.221Z,18.60
2019-05-28T10:26:24.671Z,18.30
2019-05-28T10:28:53.078Z,17.60
2019-05-28T10:31:21.502Z,17.50
2019-05-28T10:33:49.944Z,17.50
2019-05-28T10:36:34.363Z,17.60
2019-05-28T10:38:48.598Z,17.20
2019-05-28T10:41:17.099Z,17.40
2019-05-28T10:43:45.842Z,17.40
2019-05-28T10:46:14.406Z,17.50
2019-05-28T10:48:43.221Z,17.50
2019-05-28T10:51:11.843Z,17.70
2019-05-28T10:53:40.309Z,17.50
2019-05-28T10:56:08.711Z,17.70
2019-05-28T10:58:37.146Z,18.10
2019-05-28T11:01:05.566Z,18.40
2019-05-28T11:03:33.981Z,18.60
2019-05-28T11:06:02.399Z,18.70
2019-05-28T11:08:30.827Z,18.80
2019-05-28T11:10:59.241Z,18.90
2019-05-28T11:13:27.648Z,19.00
2019-05-28T11:15:56.126Z,19.00
2019-05-28T11:18:24.564Z,19.10
2019-05-28T11:20:53.220Z,18.80
2019-05-28T11:23:21.852Z,18.30
2019-05-28T11:25:50.277Z,17.80
2019-05-28T11:28:18.705Z,17.20
2019-05-28T11:30:47.118Z,17.30
2019-05-28T11:33:17.463Z,17.20
2019-05-28T11:35:45.674Z,17.00
2019-05-28T11:38:14.083Z,16.70
2019-05-28T11:40:42.740Z,16.40
2019-05-28T11:43:11.303Z,16.20
2019-05-28T11:45:39.761Z,15.50
2019-05-28T11:48:08.175Z,15.30
2019-05-28T11:50:36.650Z,14.70
2019-05-28T11:53:05.211Z,14.20
2019-05-28T11:55:33.616Z,14.00
2019-05-28T11:58:02.039Z,14.00
2019-05-28T12:00:30.791Z,14.10
2019-05-28T12:02:59.218Z,14.40
2019-05-28T12:05:28.580Z,14.40
2019-05-28T12:07:56.985Z,14.50
2019-05-28T12:10:25.857Z,14.80
2019-05-28T12:12:54.338Z,15.10
2019-05-28T12:15:23.070Z,15.20
2019-05-28T12:17:51.567Z,15.40
2019-05-28T12:20:21.366Z,15.70
2019-05-28T12:23:08.891Z,15.70
2019-05-28T12:25:20.448Z,15.60
2019-05-28T12:27:48.869Z,15.30
2019-05-28T12:30:19.136Z,15.10
2019-05-28T12:32:47.535Z,15.10
2019-05-28T12:35:28.481Z,14.70
2019-05-28T12:37:50.128Z,14.50
2019-05-28T12:40:17.747Z,14.20
2019-05-28T12:42:46.170Z,13.90
2019-05-28T12:45:15.685Z,13.90
2019-05-28T12:47:44.196Z,13.90
2019-05-28T12:50:19.892Z,13.80
2019-05-28T12:52:46.977Z,13.80
2019-05-28T12:55:15.332Z,13.90
2019-05-28T12:57:43.781Z,13.80
2019-05-28T13:00:13.763Z,13.70
2019-05-28T13:02:42.418Z,13.80
2019-05-28T13:05:17.020Z,14.00
2019-05-28T13:07:45.583Z,14.30
2019-05-28T13:10:14.486Z,14.40
2019-05-28T13:12:42.999Z,14.60
2019-05-28T13:15:12.392Z,14.60
2019-05-28T13:17:40.858Z,15.00
2019-05-28T13:20:10.549Z,15.50
2019-05-28T13:22:39.453Z,16.00
2019-05-28T13:25:08.599Z,16.20
2019-05-28T13:27:37.033Z,16.40
2019-05-28T13:30:10.931Z,16.00
2019-05-28T13:32:39.507Z,15.90
2019-05-28T13:35:09.453Z,15.80
2019-05-28T13:37:37.854Z,15.60
2019-05-28T13:40:08.765Z,15.70
2019-05-28T13:42:37.234Z,15.70
2019-05-28T13:45:09.073Z,15.70
2019-05-28T13:47:37.502Z,15.60
2019-05-28T13:50:09.498Z,15.40
2019-05-28T13:52:37.922Z,15.40
2019-05-28T13:55:07.391Z,15.30
2019-05-28T13:57:39.237Z,15.30
2019-05-28T14:00:08.418Z,15.30
2019-05-28T14:02:36.972Z,15.40
2019-05-28T14:05:07.223Z,15.50
2019-05-28T14:07:36.647Z,15.70
2019-05-28T14:10:07.408Z,16.10
2019-05-28T14:12:35.842Z,16.30
2019-05-28T14:15:05.802Z,16.60
2019-05-28T14:17:34.339Z,17.00
2019-05-28T14:20:03.359Z,17.60
2019-05-28T14:22:34.374Z,17.60
2019-05-28T14:25:01.981Z,17.70
2019-05-28T14:27:30.465Z,17.80
2019-05-28T14:29:58.938Z,18.00
2019-05-28T14:32:27.435Z,17.50
2019-05-28T14:34:55.853Z,17.60
2019-05-28T14:37:25.075Z,17.80
2019-05-28T14:39:53.558Z,17.70
2019-05-28T14:42:21.956Z,17.70
2019-05-28T14:44:50.395Z,17.60
2019-05-28T14:47:18.817Z,17.90
2019-05-28T14:49:47.334Z,17.90
2019-05-28T14:52:15.733Z,17.60
2019-05-28T14:54:44.200Z,17.50
2019-05-28T14:57:13.415Z,17.40
2019-05-28T14:59:42.025Z,17.50
2019-05-28T15:02:10.750Z,17.50
2019-05-28T15:04:40.130Z,17.60
2019-05-28T15:07:08.608Z,17.70
2019-05-28T15:09:37.042Z,17.30
2019-05-28T15:12:06.914Z,17.20
2019-05-28T15:14:35.361Z,17.40
2019-05-28T15:17:03.936Z,17.40
2019-05-28T15:19:32.365Z,18.00
2019-05-28T15:22:00.847Z,18.70
2019-05-28T15:24:29.264Z,19.20
2019-05-28T15:26:57.686Z,19.20
2019-05-28T15:29:26.098Z,19.50
2019-05-28T15:31:54.585Z,19.50
2019-05-28T15:34:22.982Z,19.70
2019-05-28T15:36:51.401Z,19.80
2019-05-28T15:39:36.072Z,19.70
2019-05-28T15:41:49.985Z,19.90
2019-05-28T15:44:18.440Z,20.20
2019-05-28T15:46:46.902Z,20.30
2019-05-28T15:49:15.360Z,20.10
2019-05-28T15:51:43.774Z,19.40
2019-05-28T15:54:12.215Z,18.70
2019-05-28T15:56:40.658Z,18.20
2019-05-28T15:59:09.060Z,17.80
2019-05-28T16:01:37.474Z,17.30
2019-05-28T16:04:06.343Z,17.10
2019-05-28T16:06:34.770Z,16.80
2019-05-28T16:09:04.720Z,16.60
2019-05-28T16:11:33.145Z,16.40
2019-05-28T16:14:02.495Z,16.30
2019-05-28T16:16:30.933Z,16.20
2019-05-28T16:18:59.356Z,16.10
2019-05-28T16:21:27.868Z,16.20
2019-05-28T16:23:56.289Z,16.00
2019-05-28T16:26:24.709Z,15.80
2019-05-28T16:28:53.117Z,15.60
2019-05-28T16:31:21.562Z,15.30
2019-05-28T16:33:50.063Z,14.70
2019-05-28T16:36:18.556Z,13.80
2019-05-28T16:38:56.614Z,13.60
2019-05-28T16:41:25.094Z,13.30
2019-05-28T16:43:53.500Z,12.90
2019-05-28T16:46:22.046Z,12.70
2019-05-28T16:48:50.533Z,12.80
2019-05-28T16:51:18.972Z,13.00
2019-05-28T16:53:47.416Z,13.10
2019-05-28T16:56:15.839Z,13.00
2019-05-28T16:58:44.280Z,13.10
2019-05-28T17:01:22.519Z,13.10
2019-05-28T17:03:43.482Z,13.30
2019-05-28T17:06:11.914Z,13.50
2019-05-28T17:08:40.324Z,13.70
2019-05-28T17:11:08.823Z,13.80
2019-05-28T17:13:37.368Z,13.90
2019-05-28T17:16:05.936Z,14.10
2019-05-28T17:18:34.455Z,14.10
2019-05-28T17:21:02.891Z,14.20
2019-05-28T17:23:32.750Z,14.10
2019-05-28T17:26:01.264Z,14.10
2019-05-28T17:28:32.842Z,14.10
2019-05-28T17:31:01.383Z,14.10
2019-05-28T17:33:29.801Z,14.10
2019-05-28T17:35:58.240Z,14.10
2019-05-28T17:38:26.648Z,13.80
2019-05-28T17:40:55.067Z,13.60
2019-05-28T17:43:23.513Z,13.50
2019-05-28T17:45:51.925Z,13.60
2019-05-28T17:48:20.414Z,13.30
2019-05-28T17:50:48.892Z,13.30
2019-05-28T17:53:17.409Z,13.00
2019-05-28T17:55:45.903Z,12.80
2019-05-28T17:58:14.340Z,12.60
2019-05-28T18:00:42.760Z,12.40
2019-05-28T18:03:11.271Z,12.50
2019-05-28T18:05:39.803Z,12.40
2019-05-28T18:08:13.461Z,12.50
2019-05-28T18:10:41.881Z,12.60
2019-05-28T18:13:10.309Z,12.60
2019-05-28T18:15:38.753Z,12.60
2019-05-28T18:18:09.050Z,12.80
2019-05-28T18:20:37.530Z,12.70
2019-05-28T18:23:05.952Z,12.80
2019-05-28T18:25:34.381Z,12.90
2019-05-28T18:28:02.951Z,13.00
2019-05-28T18:30:31.455Z,13.10
2019-05-28T18:33:00.143Z,12.90
2019-05-28T18:35:28.569Z,12.80
2019-05-28T18:38:03.413Z,12.80
2019-05-28T18:40:27.294Z,12.70
2019-05-28T18:42:55.803Z,12.60
2019-05-28T18:45:24.257Z,12.50
2019-05-28T18:47:52.695Z,12.40
2019-05-28T18:50:21.110Z,12.40
2019-05-28T18:52:49.518Z,12.30
2019-05-28T18:55:18.099Z,12.30
2019-05-28T18:57:50.414Z,12.20
2019-05-28T19:00:18.227Z,12.10
2019-05-28T19:02:46.642Z,12.10
2019-05-28T19:05:17.482Z,12.00
2019-05-28T19:07:46.253Z,11.90
2019-05-28T19:10:17.301Z,11.90
2019-05-28T19:12:47.069Z,11.90
2019-05-28T19:15:16.707Z,11.90
2019-05-28T19:17:45.112Z,11.70
2019-05-28T19:20:13.958Z,11.70
2019-05-28T19:22:43.059Z,11.70
2019-05-28T19:25:13.428Z,11.70
2019-05-28T19:27:41.907Z,11.60
2019-05-28T19:30:11.280Z,11.60
2019-05-28T19:32:39.774Z,11.60
2019-05-28T19:35:08.933Z,11.70
2019-05-28T19:37:37.717Z,11.70
2019-05-28T19:40:06.792Z,11.70
2019-05-28T19:42:35.228Z,11.60
2019-05-28T19:45:08.782Z,11.50
2019-05-28T19:47:39.149Z,11.40
2019-05-28T19:50:07.921Z,11.30
2019-05-28T19:52:36.363Z,11.20
2019-05-28T19:55:06.306Z,11.20
2019-05-28T19:57:34.754Z,11.10
2019-05-28T20:00:03.737Z,11.10
2019-05-28T20:02:32.143Z,11.10
2019-05-28T20:05:00.556Z,11.20
2019-05-28T20:07:28.982Z,11.30
2019-05-28T20:09:57.414Z,11.10
2019-05-28T20:12:25.837Z,11.20
2019-05-28T20:14:54.262Z,11.20
2019-05-28T20:17:22.695Z,11.20
2019-05-28T20:19:52.555Z,11.10
2019-05-28T20:22:21.427Z,11.10
2019-05-28T20:24:49.866Z,11.10
2019-05-28T20:27:18.362Z,11.00
2019-05-28T20:29:46.772Z,11.00
2019-05-28T20:32:15.280Z,11.00
2019-05-28T20:34:44.674Z,10.90
2019-05-28T20:37:13.091Z,10.90
2019-05-28T20:39:41.575Z,10.80
2019-05-28T20:42:26.161Z,10.80
2019-05-28T20:44:42.049Z,10.70
2019-05-28T20:47:10.974Z,10.80
2019-05-28T20:49:39.512Z,10.90
2019-05-28T20:52:08.969Z,10.80
2019-05-28T20:54:37.743Z,10.80
2019-05-28T20:57:06.158Z,10.80
2019-05-28T20:59:34.643Z,10.80
2019-05-28T21:02:03.090Z,10.90
2019-05-28T21:04:31.563Z,10.90
2019-05-28T21:06:59.960Z,10.80
2019-05-28T21:09:28.412Z,10.70
2019-05-28T21:11:56.817Z,10.60
2019-05-28T21:14:25.239Z,10.60
2019-05-28T21:16:54.981Z,10.50
2019-05-28T21:19:23.472Z,10.50
2019-05-28T21:21:51.879Z,10.60
2019-05-28T21:24:20.314Z,10.50
2019-05-28T21:26:50.016Z,10.50
2019-05-28T21:29:18.538Z,10.50
2019-05-28T21:31:46.960Z,10.50
2019-05-28T21:34:15.377Z,10.50
2019-05-28T21:36:43.787Z,10.40
2019-05-28T21:39:12.210Z,10.50
2019-05-28T21:41:40.627Z,10.40
2019-05-28T21:44:09.094Z,10.40
2019-05-28T21:46:37.529Z,10.40
2019-05-28T21:49:05.969Z,10.30
2019-05-28T21:51:34.408Z,10.30
2019-05-28T21:54:03.325Z,10.20
2019-05-28T21:56:31.817Z,10.20
2019-05-28T21:59:00.240Z,10.20
2019-05-28T22:01:31.187Z,10.00
2019-05-28T22:03:59.606Z,10.10
2019-05-28T22:06:28.029Z,10.00
2019-05-28T22:08:57.643Z,9.90
2019-05-28T22:11:26.136Z,9.90
2019-05-28T22:13:54.619Z,9.70
2019-05-28T22:16:23.019Z,9.70
2019-05-28T22:18:51.510Z,9.70
2019-05-28T22:21:19.931Z,9.70
2019-05-28T22:23:48.373Z,9.70
2019-05-28T22:26:16.782Z,9.60
2019-05-28T22:28:45.195Z,9.80
2019-05-28T22:31:15.024Z,9.70
2019-05-28T22:33:43.826Z,9.70
2019-05-28T22:36:12.467Z,9.70
2019-05-28T22:38:40.964Z,9.60
2019-05-28T22:41:09.373Z,9.60
2019-05-28T22:43:37.819Z,9.60
2019-05-28T22:46:07.236Z,9.60
2019-05-28T22:48:35.841Z,9.60
2019-05-28T22:51:05.585Z,9.60
2019-05-28T22:53:34.099Z,9.70
2019-05-28T22:56:04.060Z,9.70
2019-05-28T22:58:32.687Z,9.70
2019-05-28T23:01:01.097Z,9.60
2019-05-28T23:03:29.496Z,9.60
2019-05-28T23:05:58.971Z,9.70
2019-05-28T23:08:27.415Z,9.70
2019-05-28T23:10:56.972Z,9.70
2019-05-28T23:13:25.515Z,9.70
2019-05-28T23:15:53.938Z,9.80
2019-05-28T23:18:22.357Z,9.80
2019-05-28T23:20:50.784Z,9.80
2019-05-28T23:23:19.187Z,9.80
2019-05-28T23:25:47.624Z,9.80
2019-05-28T23:28:16.040Z,9.80
2019-05-28T23:30:44.470Z,9.80
2019-05-28T23:33:14.251Z,9.80
2019-05-28T23:35:43.275Z,9.80
2019-05-28T23:38:11.668Z,9.70
2019-05-28T23:40:40.070Z,9.70
2019-05-28T23:43:09.504Z,9.80
2019-05-28T23:45:37.995Z,9.90
2019-05-28T23:48:10.842Z,10.10
2019-05-28T23:50:36.722Z,10.00
2019-05-28T23:53:05.645Z,10.00
2019-05-28T23:55:34.311Z,10.00
2019-05-28T23:58:02.719Z,10.00
